Time;durP1;ratioP1;P1;durP2;ratioP2;P2;SDS_P1;SDS_P2;PMS_P1;PMS_P2;Temp;Humidity;BMP_temperature;BMP_pressure;BME280_temperature;BME280_humidity;BME280_pressure;Samples;Min_cycle;Max_cycle;Signal;HPM_P1;HPM_P2
2022/05/06 00:02:15;;;;;;;24.88;15.57;;;;;;;;;;5014606;28;20088;-67
2022/05/06 00:04:44;;;;;;;23.52;15.30;;;;;;;;;;5013881;28;20050;-67
2022/05/06 00:07:12;;;;;;;28.40;16.38;;;;;;;;;;5014098;28;20119;-67
2022/05/06 00:09:38;;;;;;;26.92;15.98;;;;;;;;;;5013329;28;20129;-67
2022/05/06 00:12:05;;;;;;;27.35;15.88;;;;;;;;;;5013906;28;20376;-67
2022/05/06 00:14:31;;;;;;;22.55;14.90;;;;;;;;;;5014472;28;20082;-67
2022/05/06 00:16:57;;;;;;;26.08;16.27;;;;;;;;;;5014168;28;20038;-67
2022/05/06 00:19:23;;;;;;;27.90;16.58;;;;;;;;;;5013692;28;20045;-67
2022/05/06 00:21:49;;;;;;;26.17;16.08;;;;;;;;;;5013676;28;20365;-67
2022/05/06 00:24:15;;;;;;;24.92;16.15;;;;;;;;;;5014225;28;20050;-67
2022/05/06 00:26:41;;;;;;;26.33;15.55;;;;;;;;;;5013506;28;20099;-67
2022/05/06 00:29:08;;;;;;;27.13;15.90;;;;;;;;;;5014077;28;20045;-67
2022/05/06 00:31:34;;;;;;;25.40;14.05;;;;;;;;;;5014205;28;20397;-67
2022/05/06 00:34:00;;;;;;;30.77;16.30;;;;;;;;;;5013248;28;20049;-67
2022/05/06 00:36:27;;;;;;;24.58;16.13;;;;;;;;;;5013860;28;20105;-67
2022/05/06 00:38:54;;;;;;;29.85;15.75;;;;;;;;;;5013745;28;20457;-67
2022/05/06 00:41:20;;;;;;;27.20;16.70;;;;;;;;;;5013237;28;20046;-67
2022/05/06 00:43:46;;;;;;;24.65;16.02;;;;;;;;;;5013436;28;20189;-67
2022/05/06 00:46:14;;;;;;;26.63;16.40;;;;;;;;;;5013785;28;20049;-67
2022/05/06 00:48:41;;;;;;;27.67;15.27;;;;;;;;;;5013124;28;20045;-67
2022/05/06 00:51:08;;;;;;;28.55;17.58;;;;;;;;;;5013782;28;20099;-67
2022/05/06 00:53:38;;;;;;;28.85;17.35;;;;;;;;;;5013765;28;20041;-67
2022/05/06 00:56:05;;;;;;;26.52;16.63;;;;;;;;;;5012802;28;20046;-67
2022/05/06 00:58:32;;;;;;;26.33;16.58;;;;;;;;;;5013459;28;20037;-67
2022/05/06 01:00:58;;;;;;;25.60;15.98;;;;;;;;;;5013528;28;20073;-67
2022/05/06 01:03:24;;;;;;;23.92;17.17;;;;;;;;;;5012687;28;20056;-67
2022/05/06 01:05:50;;;;;;;25.45;15.10;;;;;;;;;;5013059;28;20132;-67
2022/05/06 01:08:16;;;;;;;26.33;16.60;;;;;;;;;;5013303;28;20123;-67
2022/05/06 01:10:43;;;;;;;31.27;17.10;;;;;;;;;;5012821;28;20045;-67
2022/05/06 01:13:09;;;;;;;25.27;15.95;;;;;;;;;;5011820;28;20408;-67
2022/05/06 01:15:36;;;;;;;28.35;17.20;;;;;;;;;;5013253;28;20053;-67
2022/05/06 01:18:02;;;;;;;28.70;16.20;;;;;;;;;;5012708;28;20097;-67
2022/05/06 01:20:28;;;;;;;28.63;16.15;;;;;;;;;;5012094;28;20052;-67
2022/05/06 01:22:59;;;;;;;29.65;16.55;;;;;;;;;;5012847;28;20091;-67
2022/05/06 01:25:26;;;;;;;23.65;14.70;;;;;;;;;;5011257;28;20133;-67
2022/05/06 01:27:55;;;;;;;27.45;15.43;;;;;;;;;;5012678;28;20077;-67
2022/05/06 01:30:29;;;;;;;27.48;17.05;;;;;;;;;;5012837;28;20046;-67
2022/05/06 01:32:56;;;;;;;29.08;16.75;;;;;;;;;;5011068;28;20508;-67
2022/05/06 01:35:22;;;;;;;27.02;16.48;;;;;;;;;;5011330;28;20180;-67
2022/05/06 01:37:50;;;;;;;27.70;16.98;;;;;;;;;;5012778;28;20038;-67
2022/05/06 01:40:18;;;;;;;25.13;16.38;;;;;;;;;;5012227;28;20034;-67
2022/05/06 01:42:46;;;;;;;26.48;16.60;;;;;;;;;;5012714;28;20385;-67
2022/05/06 01:45:16;;;;;;;31.70;17.48;;;;;;;;;;5012650;28;20211;-67
2022/05/06 01:47:42;;;;;;;24.73;15.68;;;;;;;;;;5012100;28;20401;-67
2022/05/06 01:50:10;;;;;;;26.58;16.70;;;;;;;;;;5012537;28;20052;-67
2022/05/06 01:52:37;;;;;;;28.58;16.73;;;;;;;;;;5012466;28;20046;-67
2022/05/06 01:55:04;;;;;;;28.98;15.82;;;;;;;;;;5011828;28;20048;-67
2022/05/06 01:57:30;;;;;;;31.85;17.65;;;;;;;;;;5012473;28;20049;-67
2022/05/06 01:59:56;;;;;;;32.90;18.75;;;;;;;;;;5012308;28;20542;-67
2022/05/06 02:02:22;;;;;;;28.00;16.58;;;;;;;;;;5012085;28;20124;-67
2022/05/06 02:07:33;;;;;;;28.23;17.52;;;;;;;;;;5012367;28;20065;-67
2022/05/06 02:09:59;;;;;;;29.02;17.63;;;;;;;;;;5011745;28;20465;-67
2022/05/06 02:12:26;;;;;;;26.05;17.00;;;;;;;;;;5012481;28;20057;-67
2022/05/06 02:14:52;;;;;;;26.98;17.88;;;;;;;;;;5012353;28;20440;-67
2022/05/06 02:17:18;;;;;;;31.33;17.27;;;;;;;;;;5011638;28;20042;-67
2022/05/06 02:19:44;;;;;;;27.77;17.02;;;;;;;;;;5012148;28;20096;-67
2022/05/06 02:22:10;;;;;;;26.83;17.75;;;;;;;;;;5012020;28;20038;-67
2022/05/06 02:24:36;;;;;;;30.60;17.40;;;;;;;;;;5011674;28;20401;-67
2022/05/06 02:27:02;;;;;;;28.23;17.63;;;;;;;;;;5011934;28;20053;-67
2022/05/06 02:29:28;;;;;;;32.22;17.98;;;;;;;;;;5011977;28;20038;-67
2022/05/06 02:34:39;;;;;;;31.98;20.33;;;;;;;;;;5012016;28;20491;-67
2022/05/06 02:37:05;;;;;;;35.08;19.45;;;;;;;;;;5012084;28;20041;-67
2022/05/06 02:39:31;;;;;;;35.17;19.65;;;;;;;;;;5011293;28;20461;-67
2022/05/06 02:41:57;;;;;;;30.50;18.52;;;;;;;;;;5011954;28;20422;-67
2022/05/06 02:44:24;;;;;;;26.33;16.58;;;;;;;;;;5011529;28;20077;-67
2022/05/06 02:46:50;;;;;;;33.15;19.70;;;;;;;;;;5009829;28;20049;-67
2022/05/06 02:49:16;;;;;;;29.58;18.35;;;;;;;;;;5011785;28;20038;-67
2022/05/06 02:51:42;;;;;;;27.02;16.80;;;;;;;;;;5010534;28;20049;-67
2022/05/06 02:54:08;;;;;;;27.65;17.88;;;;;;;;;;5011660;28;20042;-67
2022/05/06 02:56:34;;;;;;;26.48;17.02;;;;;;;;;;5011222;28;20125;-67
2022/05/06 02:59:00;;;;;;;29.77;18.65;;;;;;;;;;5011832;28;20045;-67
2022/05/06 03:01:28;;;;;;;28.80;17.55;;;;;;;;;;5011597;28;20049;-67
2022/05/06 03:03:54;;;;;;;29.63;17.00;;;;;;;;;;5010992;28;20129;-67
2022/05/06 03:06:20;;;;;;;30.75;16.30;;;;;;;;;;5011418;28;20454;-67
2022/05/06 03:08:46;;;;;;;25.33;15.95;;;;;;;;;;5011668;28;20121;-67
2022/05/06 03:11:12;;;;;;;31.42;16.38;;;;;;;;;;5011050;28;20073;-67
2022/05/06 03:13:38;;;;;;;29.80;17.15;;;;;;;;;;5011540;28;20049;-67
2022/05/06 03:16:04;;;;;;;28.73;16.85;;;;;;;;;;5011578;28;20038;-67
2022/05/06 03:18:30;;;;;;;26.25;16.50;;;;;;;;;;5010577;28;20045;-67
2022/05/06 03:20:56;;;;;;;29.80;15.80;;;;;;;;;;5011246;28;20042;-67
2022/05/06 03:23:22;;;;;;;27.48;16.27;;;;;;;;;;5011554;28;20053;-67
2022/05/06 03:25:48;;;;;;;28.17;17.95;;;;;;;;;;5010749;28;20041;-67
2022/05/06 03:28:14;;;;;;;29.42;17.13;;;;;;;;;;5011447;28;20524;-67
2022/05/06 03:30:47;;;;;;;32.95;20.35;;;;;;;;;;5011425;28;20492;-67
2022/05/06 03:33:14;;;;;;;30.42;18.65;;;;;;;;;;5010842;28;20053;-67
2022/05/06 03:35:41;;;;;;;32.33;18.77;;;;;;;;;;5011472;28;20033;-67
2022/05/06 03:38:07;;;;;;;34.35;19.77;;;;;;;;;;5011345;28;20065;-67
2022/05/06 03:40:34;;;;;;;35.90;20.95;;;;;;;;;;5010727;28;20042;-67
2022/05/06 03:43:00;;;;;;;35.65;19.70;;;;;;;;;;5011314;28;20038;-67
2022/05/06 03:45:26;;;;;;;35.00;20.05;;;;;;;;;;5011164;28;20413;-67
2022/05/06 03:47:54;;;;;;;30.95;18.50;;;;;;;;;;5010566;28;20584;-67
2022/05/06 03:53:06;;;;;;;33.88;17.70;;;;;;;;;;5011120;28;20053;-67
2022/05/06 03:55:32;;;;;;;32.50;18.30;;;;;;;;;;5010443;28;20049;-67
2022/05/06 03:57:58;;;;;;;29.27;17.13;;;;;;;;;;5014154;28;20568;-67
2022/05/06 04:00:26;;;;;;;28.48;16.45;;;;;;;;;;5014378;28;20124;-67
2022/05/06 04:02:52;;;;;;;28.60;16.75;;;;;;;;;;5012926;28;20061;-67
2022/05/06 04:05:18;;;;;;;28.83;17.08;;;;;;;;;;5014361;28;20145;-67
2022/05/06 04:07:44;;;;;;;26.08;16.08;;;;;;;;;;5014461;28;20125;-67
2022/05/06 04:10:10;;;;;;;31.83;17.73;;;;;;;;;;5014035;28;20042;-67
2022/05/06 04:12:36;;;;;;;31.83;18.08;;;;;;;;;;5014475;28;20374;-67
2022/05/06 04:15:04;;;;;;;27.88;16.65;;;;;;;;;;5014448;28;20048;-67
2022/05/06 04:17:30;;;;;;;29.42;16.10;;;;;;;;;;5013558;28;20117;-67
2022/05/06 04:23:29;;;;;;;27.75;16.65;;;;;;;;;;5014135;28;20123;-67
2022/05/06 04:25:28;;;;;;;29.20;16.05;;;;;;;;;;5014172;28;20455;-67
2022/05/06 04:27:54;;;;;;;29.48;16.40;;;;;;;;;;5014191;28;20480;-67
2022/05/06 04:30:20;;;;;;;25.60;15.15;;;;;;;;;;5014081;28;20048;-67
2022/05/06 04:32:46;;;;;;;29.27;16.70;;;;;;;;;;5013726;28;20065;-67
2022/05/06 04:35:15;;;;;;;28.02;16.80;;;;;;;;;;5014127;28;20369;-67
2022/05/06 04:37:42;;;;;;;28.73;15.98;;;;;;;;;;5012852;28;20092;-67
2022/05/06 04:40:08;;;;;;;39.38;18.05;;;;;;;;;;5013236;28;20046;-67
2022/05/06 04:42:34;;;;;;;88.50;21.65;;;;;;;;;;5013829;28;20120;-67
2022/05/06 04:45:00;;;;;;;110.43;21.75;;;;;;;;;;5013905;28;20126;-67
2022/05/06 04:47:27;;;;;;;84.03;22.13;;;;;;;;;;5013224;28;20504;-67
2022/05/06 04:49:53;;;;;;;91.15;22.30;;;;;;;;;;5013831;28;20137;-67
2022/05/06 04:52:19;;;;;;;135.55;21.30;;;;;;;;;;5013688;28;20065;-67
2022/05/06 04:54:45;;;;;;;72.80;20.02;;;;;;;;;;5012502;28;20048;-67
2022/05/06 04:57:11;;;;;;;104.15;20.00;;;;;;;;;;5013668;28;20121;-67
2022/05/06 04:59:37;;;;;;;152.32;23.10;;;;;;;;;;5013410;28;20037;-67
2022/05/06 05:02:03;;;;;;;60.85;19.85;;;;;;;;;;5012977;28;20519;-67
2022/05/06 05:04:30;;;;;;;38.30;18.15;;;;;;;;;;5013725;28;20440;-67
2022/05/06 05:06:57;;;;;;;69.00;19.05;;;;;;;;;;5012803;28;20064;-67
2022/05/06 05:09:23;;;;;;;66.20;16.50;;;;;;;;;;5012698;28;20054;-67
2022/05/06 05:11:49;;;;;;;63.53;16.02;;;;;;;;;;5013285;28;20072;-67
2022/05/06 05:14:15;;;;;;;63.45;16.83;;;;;;;;;;5013286;28;20473;-67
2022/05/06 05:16:41;;;;;;;51.28;16.40;;;;;;;;;;5011002;28;20404;-67
2022/05/06 05:19:07;;;;;;;66.75;17.33;;;;;;;;;;5013176;28;20038;-67
2022/05/06 05:21:33;;;;;;;33.33;17.63;;;;;;;;;;5013086;28;20042;-67
2022/05/06 05:23:59;;;;;;;63.10;18.20;;;;;;;;;;5012645;28;20127;-67
2022/05/06 05:26:25;;;;;;;41.13;17.17;;;;;;;;;;5012994;28;20069;-67
2022/05/06 05:28:52;;;;;;;50.90;17.02;;;;;;;;;;5012900;28;20108;-67
2022/05/06 05:31:18;;;;;;;58.50;18.92;;;;;;;;;;5012385;28;20050;-67
2022/05/06 05:33:44;;;;;;;48.92;17.17;;;;;;;;;;5012847;28;20381;-67
2022/05/06 05:36:10;;;;;;;46.13;17.08;;;;;;;;;;5012558;28;20048;-67
2022/05/06 05:38:38;;;;;;;47.70;16.38;;;;;;;;;;5012256;28;20029;-67
2022/05/06 05:41:04;;;;;;;117.43;17.30;;;;;;;;;;5012529;28;20516;-67
2022/05/06 05:49:00;;;;;;;63.53;16.55;;;;;;;;;;5011136;28;20093;-67
2022/05/06 05:51:26;;;;;;;51.45;17.20;;;;;;;;;;5011642;28;20042;-67
2022/05/06 05:53:52;;;;;;;49.72;16.80;;;;;;;;;;5012010;28;20613;-67
2022/05/06 05:56:18;;;;;;;27.52;15.27;;;;;;;;;;5012579;28;20115;-67
2022/05/06 05:58:45;;;;;;;44.50;16.85;;;;;;;;;;5012225;28;20041;-67
2022/05/06 06:01:11;;;;;;;47.17;16.73;;;;;;;;;;5011969;28;20042;-67
2022/05/06 06:03:37;;;;;;;42.42;16.58;;;;;;;;;;5009996;28;20038;-65
2022/05/06 06:06:03;;;;;;;87.25;18.33;;;;;;;;;;5011788;28;20085;-65
2022/05/06 06:08:29;;;;;;;40.35;17.92;;;;;;;;;;5011006;28;20046;-65
2022/05/06 06:10:55;;;;;;;54.28;17.90;;;;;;;;;;5011893;28;20050;-65
2022/05/06 06:13:22;;;;;;;68.72;18.42;;;;;;;;;;5011553;28;20054;-64
2022/05/06 06:15:48;;;;;;;76.22;20.48;;;;;;;;;;5011400;28;20041;-64
2022/05/06 06:18:15;;;;;;;73.70;21.42;;;;;;;;;;5011700;28;20073;-65
2022/05/06 06:20:41;;;;;;;93.68;21.75;;;;;;;;;;5011500;28;20041;-66
2022/05/06 06:23:07;;;;;;;44.63;19.17;;;;;;;;;;5011377;28;20030;-66
2022/05/06 06:25:34;;;;;;;88.03;23.20;;;;;;;;;;5011743;28;20424;-64
2022/05/06 06:28:00;;;;;;;89.93;22.92;;;;;;;;;;5011284;28;20077;-64
2022/05/06 06:30:26;;;;;;;93.38;23.52;;;;;;;;;;5011400;28;20543;-64
2022/05/06 06:32:52;;;;;;;73.80;23.45;;;;;;;;;;5011423;28;20113;-64
2022/05/06 06:35:19;;;;;;;56.28;23.52;;;;;;;;;;5011617;28;20045;-64
2022/05/06 06:37:45;;;;;;;60.60;25.88;;;;;;;;;;5010954;28;20461;-64
2022/05/06 06:40:12;;;;;;;53.55;25.58;;;;;;;;;;5011786;28;20642;-64
2022/05/06 06:42:39;;;;;;;55.45;26.58;;;;;;;;;;5011269;28;20042;-64
2022/05/06 06:45:05;;;;;;;53.90;26.52;;;;;;;;;;5010357;28;20060;-65
2022/05/06 06:47:31;;;;;;;51.15;25.98;;;;;;;;;;5011454;28;20085;-66
2022/05/06 06:50:00;;;;;;;56.40;27.45;;;;;;;;;;5011244;28;20046;-65
2022/05/06 06:52:26;;;;;;;55.33;27.23;;;;;;;;;;5010631;28;20046;-65
2022/05/06 06:54:53;;;;;;;59.33;27.50;;;;;;;;;;5011615;28;20091;-65
2022/05/06 06:57:18;;;;;;;59.83;28.05;;;;;;;;;;5011197;28;20091;-65
2022/05/06 06:59:45;;;;;;;49.85;27.65;;;;;;;;;;5010762;28;20653;-64
2022/05/06 07:02:11;;;;;;;57.67;29.95;;;;;;;;;;5011679;28;20038;-66
2022/05/06 07:04:37;;;;;;;52.67;27.20;;;;;;;;;;5011217;28;20420;-66
2022/05/06 07:12:32;;;;;;;59.20;30.05;;;;;;;;;;5001219;28;20249;-64
2022/05/06 07:14:59;;;;;;;49.33;26.85;;;;;;;;;;5010607;28;20038;-65
2022/05/06 07:17:25;;;;;;;50.00;25.27;;;;;;;;;;5011337;28;20042;-65
2022/05/06 07:19:51;;;;;;;52.17;27.23;;;;;;;;;;5011012;28;20072;-65
2022/05/06 07:22:17;;;;;;;51.33;27.05;;;;;;;;;;5010833;28;20041;-65
2022/05/06 07:24:43;;;;;;;52.75;27.38;;;;;;;;;;5011289;28;20507;-64
2022/05/06 07:27:09;;;;;;;55.92;27.20;;;;;;;;;;5011215;28;20432;-64
2022/05/06 07:29:35;;;;;;;50.88;26.77;;;;;;;;;;5010586;28;20046;-64
2022/05/06 07:32:01;;;;;;;46.22;24.65;;;;;;;;;;5014228;28;20408;-66
2022/05/06 07:34:28;;;;;;;51.70;24.33;;;;;;;;;;5014983;28;20042;-65
2022/05/06 07:36:54;;;;;;;46.58;23.45;;;;;;;;;;5013876;28;20042;-65
2022/05/06 07:39:20;;;;;;;43.58;23.23;;;;;;;;;;5014406;28;20662;-65
2022/05/06 07:41:46;;;;;;;43.22;23.30;;;;;;;;;;5014723;28;20046;-65
2022/05/06 07:44:13;;;;;;;44.85;23.10;;;;;;;;;;5002577;28;20121;-65
2022/05/06 07:46:39;;;;;;;44.80;22.77;;;;;;;;;;5011020;28;20457;-64
2022/05/06 07:49:06;;;;;;;45.20;23.73;;;;;;;;;;5010337;28;20033;-65
2022/05/06 07:51:32;;;;;;;42.45;22.25;;;;;;;;;;5011630;28;20073;-66
2022/05/06 07:53:58;;;;;;;39.47;22.00;;;;;;;;;;5013121;28;20084;-66
2022/05/06 07:56:25;;;;;;;42.80;21.30;;;;;;;;;;5009305;28;20668;-65
2022/05/06 07:58:52;;;;;;;37.47;20.45;;;;;;;;;;5008358;28;20120;-64
2022/05/06 08:04:32;;;;;;;39.55;20.70;;;;;;;;;;5014105;28;20046;-65
2022/05/06 08:06:50;;;;;;;30.35;18.13;;;;;;;;;;5010042;28;20058;-65
2022/05/06 08:09:16;;;;;;;30.73;17.00;;;;;;;;;;5011992;28;20049;-65
2022/05/06 08:11:42;;;;;;;25.25;14.88;;;;;;;;;;5012743;28;20045;-65
2022/05/06 08:14:08;;;;;;;24.35;14.77;;;;;;;;;;5012067;28;20461;-65
2022/05/06 08:16:34;;;;;;;21.08;13.10;;;;;;;;;;5009899;28;20042;-64
2022/05/06 08:19:00;;;;;;;23.25;14.23;;;;;;;;;;5017056;28;20099;-64
2022/05/06 08:21:26;;;;;;;23.45;14.52;;;;;;;;;;5009708;28;20038;-64
2022/05/06 08:23:52;;;;;;;22.27;13.98;;;;;;;;;;5013222;28;20042;-64
2022/05/06 08:26:18;;;;;;;20.50;12.88;;;;;;;;;;5012287;28;20042;-64
2022/05/06 08:28:44;;;;;;;20.90;12.25;;;;;;;;;;5008347;28;20042;-64
2022/05/06 08:31:10;;;;;;;20.83;13.35;;;;;;;;;;5013272;28;20042;-64
2022/05/06 08:33:36;;;;;;;19.35;12.85;;;;;;;;;;5013405;28;20050;-65
2022/05/06 08:36:05;;;;;;;18.33;11.25;;;;;;;;;;5012707;28;20080;-64
2022/05/06 08:38:31;;;;;;;15.23;10.20;;;;;;;;;;5012728;28;20445;-64
2022/05/06 08:40:58;;;;;;;15.43;10.55;;;;;;;;;;5013044;28;20045;-65
2022/05/06 08:43:24;;;;;;;15.30;10.55;;;;;;;;;;5010144;28;20045;-64
2022/05/06 08:51:27;;;;;;;19.92;12.30;;;;;;;;;;5012303;28;20054;-64
2022/05/06 08:53:54;;;;;;;17.85;11.50;;;;;;;;;;5012687;28;20099;-65
2022/05/06 08:56:20;;;;;;;19.05;12.70;;;;;;;;;;5012937;28;20046;-64
2022/05/06 08:58:46;;;;;;;17.25;11.98;;;;;;;;;;5010276;28;20042;-64
2022/05/06 09:01:13;;;;;;;16.83;11.52;;;;;;;;;;5012771;28;20057;-66
2022/05/06 09:03:43;;;;;;;18.48;12.35;;;;;;;;;;5012842;28;20358;-65
2022/05/06 09:06:22;;;;;;;21.13;12.30;;;;;;;;;;5001068;28;20156;-64
2022/05/06 09:08:49;;;;;;;17.50;11.18;;;;;;;;;;5008577;28;20107;-64
2022/05/06 09:11:17;;;;;;;16.15;10.55;;;;;;;;;;5008623;28;20041;-64
2022/05/06 09:13:53;;;;;;;18.88;12.50;;;;;;;;;;5009533;28;20133;-64
2022/05/06 09:16:40;;;;;;;17.88;11.80;;;;;;;;;;5009534;28;20042;-65
2022/05/06 09:19:27;;;;;;;16.27;11.60;;;;;;;;;;5010112;28;20048;-64
2022/05/06 09:22:06;;;;;;;16.50;10.65;;;;;;;;;;5011811;28;20492;-64
2022/05/06 09:24:34;;;;;;;14.68;10.27;;;;;;;;;;5011426;28;20498;-64
2022/05/06 09:27:07;;;;;;;15.77;11.15;;;;;;;;;;5014993;28;20385;-64
2022/05/06 09:29:33;;;;;;;16.73;11.18;;;;;;;;;;5011886;28;20084;-64
2022/05/06 09:32:18;;;;;;;15.32;10.45;;;;;;;;;;5011708;28;20056;-65
2022/05/06 09:34:45;;;;;;;18.67;11.40;;;;;;;;;;5009665;28;20065;-64
2022/05/06 09:37:11;;;;;;;18.02;12.00;;;;;;;;;;5011016;28;20038;-65
2022/05/06 09:39:38;;;;;;;14.80;10.52;;;;;;;;;;5010208;28;20049;-65
2022/05/06 09:42:05;;;;;;;15.20;11.32;;;;;;;;;;5010861;28;20092;-65
2022/05/06 09:44:33;;;;;;;15.18;10.85;;;;;;;;;;5009461;28;20048;-65
2022/05/06 09:47:12;;;;;;;14.93;9.38;;;;;;;;;;5010616;28;20052;-65
2022/05/06 09:49:41;;;;;;;11.25;8.80;;;;;;;;;;5008980;28;20124;-65
2022/05/06 09:52:08;;;;;;;13.55;9.48;;;;;;;;;;5009128;28;20046;-65
2022/05/06 09:54:34;;;;;;;12.57;9.15;;;;;;;;;;5007403;28;20049;-65
2022/05/06 09:57:03;;;;;;;11.75;8.35;;;;;;;;;;5013871;28;20072;-66
2022/05/06 09:59:29;;;;;;;11.73;7.43;;;;;;;;;;5010475;28;20044;-65
2022/05/06 10:01:55;;;;;;;10.88;8.25;;;;;;;;;;5007224;28;20038;-65
2022/05/06 10:04:21;;;;;;;8.40;6.93;;;;;;;;;;5010438;28;20046;-65
2022/05/06 10:06:48;;;;;;;8.30;6.20;;;;;;;;;;5011037;28;20161;-65
2022/05/06 10:09:14;;;;;;;8.55;7.45;;;;;;;;;;5011744;28;20057;-65
2022/05/06 10:11:40;;;;;;;8.95;6.93;;;;;;;;;;5011099;28;20038;-65
2022/05/06 10:14:07;;;;;;;7.57;6.05;;;;;;;;;;5011748;28;20121;-65
2022/05/06 10:16:36;;;;;;;7.40;6.57;;;;;;;;;;5011148;28;20377;-65
2022/05/06 10:19:03;;;;;;;8.98;6.25;;;;;;;;;;5010724;28;20392;-65
2022/05/06 10:21:48;;;;;;;7.13;5.47;;;;;;;;;;5011123;28;20034;-65
2022/05/06 10:24:15;;;;;;;8.10;6.22;;;;;;;;;;5011491;28;20037;-65
2022/05/06 10:26:45;;;;;;;7.78;5.45;;;;;;;;;;5010879;28;20478;-65
2022/05/06 10:32:34;;;;;;;7.97;5.53;;;;;;;;;;5011760;28;20042;-65
2022/05/06 10:35:05;;;;;;;5.03;4.32;;;;;;;;;;5010628;28;20078;-65
2022/05/06 10:37:44;;;;;;;5.18;4.53;;;;;;;;;;5005093;28;20045;-63
2022/05/06 10:40:25;;;;;;;7.03;5.25;;;;;;;;;;5007120;28;20046;-64
2022/05/06 10:42:52;;;;;;;7.13;6.22;;;;;;;;;;5008537;28;20038;-64
2022/05/06 10:45:32;;;;;;;7.28;6.00;;;;;;;;;;5009262;28;20116;-63
2022/05/06 10:47:58;;;;;;;11.50;6.60;;;;;;;;;;5008295;28;20038;-63
2022/05/06 10:50:29;;;;;;;8.50;5.45;;;;;;;;;;5007567;28;20037;-63
2022/05/06 10:52:55;;;;;;;6.40;5.28;;;;;;;;;;5010556;28;20627;-64
2022/05/06 10:55:22;;;;;;;8.30;6.03;;;;;;;;;;5009693;28;20128;-64
2022/05/06 10:57:49;;;;;;;9.15;6.18;;;;;;;;;;5009122;28;20084;-65
2022/05/06 11:00:15;;;;;;;7.63;6.50;;;;;;;;;;5009544;28;20038;-64
2022/05/06 11:02:42;;;;;;;6.38;5.70;;;;;;;;;;5008332;28;20033;-63
2022/05/06 11:05:08;;;;;;;7.43;6.03;;;;;;;;;;5006510;28;20049;-64
2022/05/06 11:07:41;;;;;;;7.35;5.68;;;;;;;;;;5011160;28;20052;-64
2022/05/06 11:10:09;;;;;;;6.95;5.80;;;;;;;;;;5014189;28;20065;-65
2022/05/06 11:12:37;;;;;;;8.55;5.15;;;;;;;;;;5014554;28;20500;-64
2022/05/06 11:15:05;;;;;;;5.55;4.63;;;;;;;;;;5014563;28;20140;-64
2022/05/06 11:17:31;;;;;;;5.68;5.00;;;;;;;;;;5012494;28;20411;-64
2022/05/06 11:19:58;;;;;;;5.88;4.85;;;;;;;;;;5014444;28;20038;-62
2022/05/06 11:22:25;;;;;;;7.70;4.53;;;;;;;;;;5012835;28;20057;-63
2022/05/06 11:24:58;;;;;;;5.88;4.82;;;;;;;;;;5013942;28;20056;-63
2022/05/06 11:27:24;;;;;;;5.90;4.32;;;;;;;;;;5013246;28;20103;-62
2022/05/06 11:29:58;;;;;;;4.88;3.63;;;;;;;;;;5014606;28;20073;-62
2022/05/06 11:32:24;;;;;;;6.75;4.35;;;;;;;;;;5013442;28;20088;-64
2022/05/06 11:35:02;;;;;;;3.75;3.30;;;;;;;;;;5014258;28;20616;-63
2022/05/06 11:37:35;;;;;;;3.90;3.50;;;;;;;;;;5012995;28;20044;-65
2022/05/06 11:40:32;;;;;;;5.43;3.88;;;;;;;;;;5013278;28;20038;-65
2022/05/06 11:43:02;;;;;;;6.65;3.80;;;;;;;;;;5013910;28;20549;-64
2022/05/06 11:48:14;;;;;;;5.57;2.88;;;;;;;;;;5013329;28;20481;-65
2022/05/06 11:50:41;;;;;;;4.50;3.15;;;;;;;;;;5013364;28;20038;-64
2022/05/06 11:53:08;;;;;;;4.25;3.28;;;;;;;;;;5010436;28;20049;-64
2022/05/06 11:55:38;;;;;;;3.97;2.97;;;;;;;;;;5011321;28;20048;-65
2022/05/06 11:58:08;;;;;;;4.25;2.95;;;;;;;;;;5013710;28;20852;-64
2022/05/06 12:00:34;;;;;;;2.53;2.33;;;;;;;;;;5009792;28;20497;-64
2022/05/06 12:03:06;;;;;;;3.58;2.50;;;;;;;;;;5012098;28;20064;-65
2022/05/06 12:05:38;;;;;;;2.67;2.20;;;;;;;;;;5011605;28;20054;-65
2022/05/06 12:08:05;;;;;;;3.20;2.63;;;;;;;;;;5013688;28;20054;-63
2022/05/06 12:10:32;;;;;;;4.10;2.10;;;;;;;;;;5010406;28;20097;-63
2022/05/06 12:13:10;;;;;;;2.88;1.92;;;;;;;;;;5011940;28;20073;-64
2022/05/06 12:15:39;;;;;;;4.82;2.53;;;;;;;;;;5011844;28;20108;-64
2022/05/06 12:18:06;;;;;;;3.47;1.92;;;;;;;;;;5009388;28;20129;-63
2022/05/06 12:20:32;;;;;;;3.38;2.03;;;;;;;;;;5013299;28;20417;-63
2022/05/06 12:22:58;;;;;;;3.78;2.30;;;;;;;;;;5011638;28;20457;-63
2022/05/06 12:25:25;;;;;;;8.00;2.78;;;;;;;;;;5011847;28;20042;-64
2022/05/06 12:28:07;;;;;;;3.05;2.50;;;;;;;;;;5012110;28;20461;-64
2022/05/06 12:30:33;;;;;;;4.53;2.60;;;;;;;;;;5009475;28;20073;-64
2022/05/06 12:33:03;;;;;;;5.97;2.58;;;;;;;;;;5012047;28;20388;-64
2022/05/06 12:35:29;;;;;;;7.30;2.70;;;;;;;;;;5010573;28;20045;-63
2022/05/06 12:38:00;;;;;;;4.18;2.97;;;;;;;;;;5010638;28;20579;-63
2022/05/06 12:40:30;;;;;;;2.58;2.28;;;;;;;;;;5009717;28;20096;-63
2022/05/06 12:43:09;;;;;;;4.00;2.08;;;;;;;;;;5011745;28;20034;-64
2022/05/06 12:45:36;;;;;;;6.63;2.50;;;;;;;;;;5012730;28;20042;-65
2022/05/06 12:50:47;;;;;;;4.65;2.58;;;;;;;;;;5008648;28;20046;-65
2022/05/06 12:53:13;;;;;;;4.63;2.28;;;;;;;;;;5011165;28;20048;-64
2022/05/06 12:55:41;;;;;;;6.03;2.30;;;;;;;;;;5008262;28;20053;-63
2022/05/06 12:58:07;;;;;;;3.25;2.00;;;;;;;;;;5011368;28;20423;-64
2022/05/06 13:00:33;;;;;;;3.88;2.47;;;;;;;;;;5011762;28;20040;-64
2022/05/06 13:03:00;;;;;;;2.85;2.10;;;;;;;;;;5008555;28;20042;-63
2022/05/06 13:05:27;;;;;;;3.15;2.38;;;;;;;;;;5008611;28;20053;-65
2022/05/06 13:07:53;;;;;;;2.20;1.98;;;;;;;;;;5011276;28;20133;-65
2022/05/06 13:10:19;;;;;;;3.03;1.95;;;;;;;;;;5011203;28;20096;-64
2022/05/06 13:12:45;;;;;;;4.55;2.00;;;;;;;;;;4904364;28;20048;-63
2022/05/06 13:15:11;;;;;;;4.07;1.75;;;;;;;;;;4993226;28;20108;-63
2022/05/06 13:17:37;;;;;;;5.03;2.00;;;;;;;;;;5012203;28;20042;-65
2022/05/06 13:20:04;;;;;;;5.00;2.35;;;;;;;;;;5012189;28;20100;-65
2022/05/06 13:22:30;;;;;;;4.22;2.45;;;;;;;;;;5012727;28;20034;-64
2022/05/06 13:24:57;;;;;;;6.88;2.55;;;;;;;;;;5010310;28;20657;-64
2022/05/06 13:27:23;;;;;;;3.65;2.60;;;;;;;;;;5012568;28;20485;-65
2022/05/06 13:29:49;;;;;;;5.47;2.33;;;;;;;;;;5012639;28;20041;-66
2022/05/06 13:32:15;;;;;;;3.97;2.30;;;;;;;;;;5008290;28;20045;-65
2022/05/06 13:34:41;;;;;;;4.45;2.40;;;;;;;;;;5010714;28;20042;-67
2022/05/06 13:37:08;;;;;;;3.88;2.63;;;;;;;;;;5012403;28;20049;-66
2022/05/06 13:39:34;;;;;;;4.97;2.92;;;;;;;;;;5011799;28;20412;-66
2022/05/06 13:42:00;;;;;;;5.30;2.65;;;;;;;;;;5012383;28;20069;-66
2022/05/06 13:44:26;;;;;;;5.95;3.33;;;;;;;;;;5012286;28;20042;-67
2022/05/06 13:46:52;;;;;;;6.55;4.20;;;;;;;;;;5010251;28;20057;-66
2022/05/06 13:49:19;;;;;;;10.07;4.00;;;;;;;;;;5012337;28;20046;-66
2022/05/06 13:51:45;;;;;;;7.55;4.30;;;;;;;;;;5012523;28;20119;-66
2022/05/06 13:54:11;;;;;;;5.60;3.90;;;;;;;;;;5011226;28;20053;-67
2022/05/06 13:59:22;;;;;;;5.82;3.53;;;;;;;;;;4991550;28;20053;-66
2022/05/06 14:01:49;;;;;;;4.88;3.15;;;;;;;;;;4999660;28;20408;-68
2022/05/06 14:04:15;;;;;;;7.40;3.47;;;;;;;;;;5010770;28;20500;-66
2022/05/06 14:06:41;;;;;;;7.05;2.70;;;;;;;;;;5009567;28;20058;-67
2022/05/06 14:09:08;;;;;;;5.57;2.80;;;;;;;;;;5010576;28;20042;-66
2022/05/06 14:11:34;;;;;;;5.93;2.25;;;;;;;;;;5012422;28;20042;-66
2022/05/06 14:14:01;;;;;;;5.10;1.95;;;;;;;;;;5009378;28;20040;-67
2022/05/06 14:16:27;;;;;;;2.63;2.00;;;;;;;;;;5011097;28;20034;-67
2022/05/06 14:18:57;;;;;;;4.53;2.60;;;;;;;;;;5009504;28;20034;-67
2022/05/06 14:21:23;;;;;;;6.80;2.35;;;;;;;;;;5011216;28;20042;-68
2022/05/06 14:23:50;;;;;;;5.80;2.70;;;;;;;;;;5010880;28;20056;-66
2022/05/06 14:26:16;;;;;;;5.30;2.85;;;;;;;;;;5011477;28;20428;-67
2022/05/06 14:28:42;;;;;;;6.00;3.50;;;;;;;;;;5011283;28;20045;-68
2022/05/06 14:31:08;;;;;;;7.88;3.15;;;;;;;;;;5010470;28;20044;-68
2022/05/06 14:33:34;;;;;;;8.65;4.10;;;;;;;;;;5011460;28;20384;-67
2022/05/06 14:36:01;;;;;;;6.07;3.65;;;;;;;;;;5011662;28;20084;-67
2022/05/06 14:38:27;;;;;;;6.90;3.53;;;;;;;;;;5010795;28;20038;-67
2022/05/06 14:40:53;;;;;;;5.15;3.05;;;;;;;;;;5011437;28;20535;-68
2022/05/06 14:43:19;;;;;;;4.82;3.72;;;;;;;;;;5011235;28;20042;-68
2022/05/06 14:45:45;;;;;;;7.38;4.55;;;;;;;;;;5010946;28;20484;-69
2022/05/06 14:48:11;;;;;;;7.82;4.22;;;;;;;;;;5011354;28;20053;-69
2022/05/06 14:50:37;;;;;;;5.07;3.45;;;;;;;;;;5011189;28;20049;-69
2022/05/06 14:53:04;;;;;;;6.95;3.95;;;;;;;;;;5010164;28;20042;-67
2022/05/06 14:55:30;;;;;;;8.27;5.60;;;;;;;;;;5011620;28;20073;-67
2022/05/06 14:57:56;;;;;;;8.70;5.95;;;;;;;;;;5011004;28;20042;-68
2022/05/06 15:00:23;;;;;;;8.40;4.78;;;;;;;;;;5010301;28;20092;-68
2022/05/06 15:02:49;;;;;;;7.57;3.83;;;;;;;;;;5011037;28;20045;-68
2022/05/06 15:05:16;;;;;;;8.15;3.95;;;;;;;;;;5010984;28;20054;-66
2022/05/06 15:07:42;;;;;;;6.22;4.10;;;;;;;;;;5010516;28;20053;-67
2022/05/06 15:10:09;;;;;;;8.63;4.18;;;;;;;;;;5011254;28;20041;-67